首页
METAR-TAF:

METAR-TAF

机场 :

吉布地, 吉布提

吉布提-安布利国际机场

纬度: 11-33N, 经度: 043-10E, 海拔: 49米

当前天气观测

该预报发布于55分钟前的06:00 UTC
风速7节,风向
温度 32°C
湿度 71%
气压 1013 hPa
能见度10公里或以上
散云层高于2300英尺

METAR: HDAM 250600Z 08007KT 9999 SCT023 32/26 Q1013

时间: 09:55 (06:55 UTC)

预报

该预报发布于1小时和55分钟前的05:00 UTC
预报有效从25日的 06点(UTC)到 26日的 06点(UTC)
风速节,风向
少量云层高于3000英尺, 积雨云.
少量云层高于2300英尺

TAF: HDAM 250500Z 2506/2606 08010KT 9/9 SCT BEEMG 2512/2515 FEW030CB BEEMG 2600/2606 00000KT FEW023

超过4000个机场的气象观测和天气预报(METAR&TAF报告)。

可查询的气象台以黄色和红色小点在地图上表示。

将鼠标移到小点上方,可查看气象台名称。

然后点击查看天气观测和预报。

如需切换地图:点击带黑十字的绿色按钮放大地图;点击带横线的绿色按钮缩小地图;或者点击绿色箭头查看邻近地区的地图。


METAR-TAF: